Time;durP1;ratioP1;P1;durP2;ratioP2;P2;SDS_P1;SDS_P2;PMS_P1;PMS_P2;Temp;Humidity;BMP_temperature;BMP_pressure;BME280_temperature;BME280_humidity;BME280_pressure;Samples;Min_cycle;Max_cycle;Signal;HPM_P1;HPM_P2
2022/04/26 03:36:42;;;;;;;7.28;3.92;;;;;;;4.07;100.00;101773.69;5068885;28;20119;-68
2022/04/26 03:39:07;;;;;;;10.52;3.95;;;;;;;4.08;100.00;101775.41;5028900;28;20028;-68
2022/04/26 03:41:34;;;;;;;9.93;3.65;;;;;;;4.10;100.00;101778.94;5068116;28;20036;-68
2022/04/26 03:44:00;;;;;;;6.18;4.10;;;;;;;4.10;100.00;101788.53;5030588;28;20996;-68
2022/04/26 03:46:25;;;;;;;6.50;4.25;;;;;;;4.08;100.00;101788.53;5059497;28;20035;-69
2022/04/26 03:48:51;;;;;;;7.57;3.97;;;;;;;4.07;100.00;101784.16;5064485;28;20426;-69
2022/04/26 03:51:16;;;;;;;9.20;4.55;;;;;;;4.04;100.00;101784.19;5068417;28;20382;-68
2022/04/26 03:53:42;;;;;;;10.07;3.63;;;;;;;4.03;100.00;101787.69;5048893;28;20517;-69
2022/04/26 03:56:07;;;;;;;7.85;3.90;;;;;;;4.02;100.00;101793.78;5068013;28;20028;-69
2022/04/26 03:58:33;;;;;;;7.43;3.58;;;;;;;4.01;100.00;101785.06;5067992;28;21447;-69
2022/04/26 04:00:59;;;;;;;7.97;3.83;;;;;;;3.99;100.00;101791.19;5068708;28;20167;-69
2022/04/26 04:03:25;;;;;;;9.00;4.20;;;;;;;3.98;100.00;101789.44;5067292;28;20533;-69
2022/04/26 04:05:51;;;;;;;12.35;4.22;;;;;;;3.97;100.00;101787.72;5065932;28;20042;-69
2022/04/26 04:08:16;;;;;;;7.65;4.00;;;;;;;3.97;100.00;101780.69;5065279;28;21446;-69
2022/04/26 04:10:42;;;;;;;6.03;3.70;;;;;;;3.96;100.00;101783.34;5068485;28;20424;-69
2022/04/26 04:13:07;;;;;;;7.20;4.10;;;;;;;3.94;100.00;101789.44;5067372;28;20757;-69
2022/04/26 04:15:33;;;;;;;6.75;3.90;;;;;;;3.94;100.00;101794.69;5070163;28;20050;-69
2022/04/26 04:17:58;;;;;;;10.52;4.05;;;;;;;3.93;100.00;101802.56;5058848;28;20259;-69
2022/04/26 04:20:25;;;;;;;6.30;3.78;;;;;;;3.91;100.00;101789.47;5065880;28;20036;-69
2022/04/26 04:22:53;;;;;;;6.90;3.95;;;;;;;3.92;100.00;101795.59;5070364;28;20402;-69
2022/04/26 04:25:20;;;;;;;9.45;3.70;;;;;;;3.90;100.00;101795.59;5068484;28;20096;-69
2022/04/26 04:27:45;;;;;;;5.57;3.78;;;;;;;3.90;100.00;101798.19;5065836;28;20593;-70
2022/04/26 04:30:11;;;;;;;9.65;4.40;;;;;;;3.90;100.00;101800.81;5069083;28;20032;-69
2022/04/26 04:32:37;;;;;;;7.43;3.42;;;;;;;3.92;100.00;101801.69;5067998;28;20035;-69
2022/04/26 04:35:04;;;;;;;6.57;4.10;;;;;;;3.93;100.00;101803.41;5067306;28;20257;-69
2022/04/26 04:37:29;;;;;;;7.03;3.60;;;;;;;3.94;100.00;101802.53;5065898;28;20032;-69
2022/04/26 04:39:55;;;;;;;10.85;4.05;;;;;;;3.94;100.00;101805.16;5063500;28;21112;-71
2022/04/26 04:42:21;;;;;;;8.15;3.78;;;;;;;3.99;100.00;101817.38;5066994;28;20770;-70
2022/04/26 04:44:47;;;;;;;6.22;3.55;;;;;;;3.98;100.00;101820.91;5065348;28;20038;-72
2022/04/26 04:47:12;;;;;;;8.07;3.83;;;;;;;3.99;100.00;101818.28;5059175;28;20279;-71
2022/04/26 04:49:38;;;;;;;7.15;3.67;;;;;;;4.03;100.00;101829.63;5064393;28;20139;-71
2022/04/26 04:52:03;;;;;;;6.70;4.07;;;;;;;4.04;100.00;101832.22;5064302;28;20122;-72
2022/04/26 04:54:29;;;;;;;10.40;4.20;;;;;;;4.08;100.00;101835.72;5067009;28;20040;-71
2022/04/26 04:56:54;;;;;;;10.65;4.45;;;;;;;4.11;100.00;101838.34;5045924;28;20151;-71
2022/04/26 04:59:20;;;;;;;6.68;4.10;;;;;;;4.15;100.00;101847.06;5068075;28;20699;-72
2022/04/26 05:01:45;;;;;;;10.77;4.60;;;;;;;4.19;100.00;101851.41;5069514;28;20075;-72
2022/04/26 05:04:11;;;;;;;6.57;4.32;;;;;;;4.21;100.00;101853.16;5049073;28;20395;-71
2022/04/26 05:06:36;;;;;;;8.63;3.92;;;;;;;4.23;100.00;101844.44;5067831;28;20120;-72
2022/04/26 05:09:02;;;;;;;5.93;3.88;;;;;;;4.24;100.00;101851.41;5047698;28;20031;-72
2022/04/26 05:11:27;;;;;;;7.05;4.10;;;;;;;4.24;100.00;101854.88;5034745;28;20043;-71
2022/04/26 05:13:53;;;;;;;6.85;3.88;;;;;;;4.24;100.00;101860.13;5045444;28;20378;-71
2022/04/26 05:16:18;;;;;;;7.35;4.03;;;;;;;4.22;100.00;101861.91;5065947;28;20410;-72
2022/04/26 05:18:44;;;;;;;6.88;4.38;;;;;;;4.23;100.00;101862.78;5045840;28;20134;-71
2022/04/26 05:21:10;;;;;;;9.80;3.78;;;;;;;4.22;100.00;101867.13;5066000;28;20042;-71
2022/04/26 05:26:19;;;;;;;7.70;3.70;;;;;;;4.25;100.00;101871.50;5065622;28;20032;-71
2022/04/26 05:28:45;;;;;;;7.13;4.72;;;;;;;4.25;100.00;101863.66;5064312;28;20818;-71
2022/04/26 05:31:10;;;;;;;9.75;4.00;;;;;;;4.30;100.00;101869.75;5047739;28;20032;-72
2022/04/26 05:33:36;;;;;;;8.38;4.28;;;;;;;4.33;100.00;101872.34;5058876;28;20024;-71
2022/04/26 05:36:02;;;;;;;8.48;4.10;;;;;;;4.39;100.00;101871.44;5066440;28;20021;-71
2022/04/26 05:38:29;;;;;;;10.85;4.65;;;;;;;4.41;100.00;101872.34;5068947;28;20636;-71
2022/04/26 05:40:54;;;;;;;10.82;4.10;;;;;;;4.44;100.00;101873.19;5069726;28;20046;-71
2022/04/26 05:43:20;;;;;;;7.25;4.43;;;;;;;4.45;100.00;101874.94;5066731;28;20032;-71
2022/04/26 05:45:46;;;;;;;7.13;4.25;;;;;;;4.51;100.00;101875.81;5066593;28;20040;-72
2022/04/26 05:48:13;;;;;;;8.93;5.00;;;;;;;4.54;100.00;101871.41;5069779;28;20031;-71
2022/04/26 05:50:39;;;;;;;7.82;4.25;;;;;;;4.62;100.00;101874.00;5048059;28;20100;-72
2022/04/26 05:53:05;;;;;;;7.63;3.90;;;;;;;4.68;100.00;101883.63;5047911;28;20510;-71
2022/04/26 05:55:31;;;;;;;7.90;4.25;;;;;;;4.72;100.00;101880.97;5049757;28;20058;-73
2022/04/26 05:57:56;;;;;;;6.40;3.65;;;;;;;4.80;100.00;101880.91;5071923;28;20035;-73
2022/04/26 06:00:22;;;;;;;6.47;4.03;;;;;;;4.86;100.00;101880.88;5049184;28;20083;-73
2022/04/26 06:02:48;;;;;;;7.28;3.97;;;;;;;4.93;100.00;101871.25;5050735;28;20279;-71
2022/04/26 06:05:14;;;;;;;6.18;4.20;;;;;;;4.98;100.00;101890.47;5072684;28;20044;-71
2022/04/26 06:07:40;;;;;;;7.47;3.78;;;;;;;5.06;100.00;101889.56;5065715;28;20065;-71
2022/04/26 06:10:06;;;;;;;8.90;4.13;;;;;;;5.12;100.00;101892.16;5072284;28;20096;-71
2022/04/26 06:12:33;;;;;;;6.07;3.83;;;;;;;5.21;100.00;101889.44;5040405;28;20052;-72
2022/04/26 06:14:59;;;;;;;9.40;3.95;;;;;;;5.29;100.00;101895.53;5068384;28;20166;-71
2022/04/26 06:17:25;;;;;;;5.72;3.95;;;;;;;5.38;100.00;101889.34;5064272;28;20055;-70
2022/04/26 06:19:51;;;;;;;8.38;4.20;;;;;;;5.50;100.00;101900.66;5062367;28;20040;-71
2022/04/26 06:22:17;;;;;;;5.75;4.10;;;;;;;5.62;100.00;101897.91;5041043;28;20032;-70
2022/04/26 06:24:42;;;;;;;7.50;4.07;;;;;;;5.75;100.00;101897.81;5034176;28;20103;-72
2022/04/26 06:27:08;;;;;;;8.55;4.20;;;;;;;5.87;100.00;101902.13;5027501;28;20179;-71
2022/04/26 06:29:34;;;;;;;5.85;4.22;;;;;;;5.96;100.00;101902.91;5067745;28;20118;-71
2022/04/26 06:31:59;;;;;;;5.47;4.18;;;;;;;6.14;100.00;101894.91;5051596;28;20155;-69
2022/04/26 06:34:26;;;;;;;7.38;4.20;;;;;;;6.43;100.00;101897.19;5048044;28;20044;-69
2022/04/26 06:36:51;;;;;;;7.55;4.43;;;;;;;6.70;100.00;101899.53;5059247;28;20247;-69
2022/04/26 06:39:17;;;;;;;5.53;3.85;;;;;;;6.89;100.00;101902.78;5066857;28;20525;-70
2022/04/26 06:41:42;;;;;;;4.65;3.40;;;;;;;7.06;100.00;101894.66;5062336;28;20043;-70
2022/04/26 06:44:08;;;;;;;4.82;3.25;;;;;;;7.14;100.00;101897.22;5067259;28;20067;-70
2022/04/26 06:46:36;;;;;;;4.55;3.05;;;;;;;7.13;99.48;101898.97;5046743;28;20118;-71
2022/04/26 06:49:03;;;;;;;6.28;3.28;;;;;;;7.19;99.33;101893.59;5067303;28;20040;-72
2022/04/26 06:51:34;;;;;;;6.10;3.22;;;;;;;7.33;98.79;101898.69;5047805;28;20097;-71
2022/04/26 06:53:59;;;;;;;5.05;3.38;;;;;;;7.46;99.26;101906.38;5044436;28;20047;-71
2022/04/26 06:56:25;;;;;;;5.28;2.45;;;;;;;7.48;97.63;101912.50;5058587;28;20048;-72
2022/04/26 06:58:50;;;;;;;3.58;2.58;;;;;;;7.34;95.78;101916.22;5030889;28;20075;-71
2022/04/26 07:01:15;;;;;;;8.02;3.15;;;;;;;7.25;95.99;101912.84;5066665;28;20115;-72
2022/04/26 07:03:41;;;;;;;5.93;2.88;;;;;;;7.18;95.35;101918.22;5051893;28;20656;-73
2022/04/26 07:06:07;;;;;;;5.95;2.85;;;;;;;7.21;95.83;101925.19;5066279;28;20093;-71
2022/04/26 07:08:32;;;;;;;5.63;2.50;;;;;;;7.24;95.26;101922.50;5067108;28;20119;-75
2022/04/26 07:10:57;;;;;;;7.70;2.70;;;;;;;7.23;94.11;101925.19;5062368;28;20569;-73
2022/04/26 07:13:23;;;;;;;3.55;2.88;;;;;;;7.24;94.44;101929.56;5066811;28;20048;-69
2022/04/26 07:15:48;;;;;;;7.22;3.00;;;;;;;7.31;94.10;101934.69;5066684;28;20119;-70
2022/04/26 07:18:14;;;;;;;3.70;2.90;;;;;;;7.48;94.34;101923.06;5048341;28;20040;-70
2022/04/26 07:20:41;;;;;;;4.78;2.28;;;;;;;7.61;94.19;101921.09;5067987;28;20130;-71
2022/04/26 07:23:07;;;;;;;5.97;2.40;;;;;;;7.80;92.71;101924.28;5052923;28;21862;-71
2022/04/26 07:25:33;;;;;;;4.78;2.33;;;;;;;7.94;91.03;101928.47;5029827;28;20024;-69
2022/04/26 07:27:59;;;;;;;6.18;2.53;;;;;;;8.18;92.61;101924.56;5067716;28;20077;-69
2022/04/26 07:30:34;;;;;;;20.45;4.40;;;;;;;8.46;91.91;101926.69;5064092;28;20317;-70
2022/04/26 07:35:53;;;;;;;7.63;2.47;;;;;;;8.74;89.86;101920.88;5044667;28;20028;-70
2022/04/26 07:38:19;;;;;;;4.57;2.08;;;;;;;8.86;88.36;101925.03;5048387;28;20477;-69
2022/04/26 07:40:44;;;;;;;15.68;3.42;;;;;;;9.04;88.72;101928.19;5059352;28;20044;-70
2022/04/26 07:43:10;;;;;;;3.05;2.20;;;;;;;9.22;88.04;101929.56;5066448;28;20513;-70
2022/04/26 07:45:37;;;;;;;4.18;2.55;;;;;;;9.35;86.05;101933.66;5067656;28;20032;-69
2022/04/26 07:48:04;;;;;;;4.43;1.83;;;;;;;9.37;85.51;101937.13;5067862;28;20024;-69
2022/04/26 07:50:30;;;;;;;5.22;2.13;;;;;;;9.49;84.97;101927.19;5067901;28;20054;-70
2022/04/26 07:52:56;;;;;;;4.10;2.35;;;;;;;9.59;84.46;101938.41;5045281;28;20586;-70
2022/04/26 07:55:22;;;;;;;19.38;4.43;;;;;;;9.61;83.71;101945.41;5066680;28;20094;-69
2022/04/26 07:57:47;;;;;;;3.80;2.17;;;;;;;9.61;82.25;101950.69;5047124;28;20039;-70
2022/04/26 08:00:14;;;;;;;5.32;1.98;;;;;;;9.67;83.28;101943.50;5034580;28;20100;-69
2022/04/26 08:02:40;;;;;;;8.35;2.30;;;;;;;9.81;83.39;101946.66;5058771;28;20066;-70
2022/04/26 08:05:06;;;;;;;4.55;2.10;;;;;;;9.94;82.38;101949.00;5060506;28;20521;-69
2022/04/26 08:07:33;;;;;;;2.42;1.60;;;;;;;10.14;83.10;101949.38;5059708;28;20510;-69
2022/04/26 08:09:58;;;;;;;7.53;2.35;;;;;;;10.30;79.49;101954.28;5046456;28;20659;-69
2022/04/26 08:12:24;;;;;;;3.63;1.85;;;;;;;10.39;79.88;101964.63;5065888;28;20048;-70
2022/04/26 08:14:49;;;;;;;3.83;1.90;;;;;;;10.46;79.49;101955.63;5058809;28;20036;-70
2022/04/26 08:17:15;;;;;;;2.72;1.80;;;;;;;10.56;78.76;101955.38;5064499;28;20040;-71
2022/04/26 08:19:41;;;;;;;2.83;2.00;;;;;;;10.68;76.41;101954.19;5066411;28;20032;-70
2022/04/26 08:22:07;;;;;;;2.40;1.80;;;;;;;10.58;75.85;101969.44;5046506;28;20028;-70
2022/04/26 08:27:22;;;;;;;2.83;1.88;;;;;;;10.45;74.80;101964.50;5041686;28;20391;-70
2022/04/26 08:29:48;;;;;;;2.10;1.60;;;;;;;10.57;75.94;101968.56;5047575;28;20044;-75
2022/04/26 08:32:14;;;;;;;3.63;2.10;;;;;;;10.72;75.79;101966.41;5066972;28;20110;-75
2022/04/26 08:34:40;;;;;;;4.45;2.15;;;;;;;10.85;75.59;101973.09;5049612;28;20469;-74
2022/04/26 08:37:06;;;;;;;3.92;1.80;;;;;;;10.93;72.96;101964.06;5066313;28;20036;-73
2022/04/26 08:39:31;;;;;;;4.90;2.05;;;;;;;11.02;73.72;101984.13;5046715;28;20040;-74
2022/04/26 08:41:58;;;;;;;2.78;1.83;;;;;;;11.03;70.93;101965.53;5030536;28;20298;-76
2022/04/26 08:44:26;;;;;;;2.83;1.95;;;;;;;11.15;72.08;101956.34;5059883;28;20386;-76
2022/04/26 08:52:20;;;;;;;3.42;2.00;;;;;;;11.25;70.50;101971.06;5066388;28;20032;-70
2022/04/26 08:54:49;;;;;;;2.25;1.85;;;;;;;11.32;69.44;101977.03;5064329;28;20027;-71
2022/04/26 08:57:14;;;;;;;4.82;2.03;;;;;;;11.34;68.16;101980.50;5064346;28;20112;-71
2022/04/26 08:59:47;;;;;;;2.17;1.95;;;;;;;11.38;69.03;101978.63;5043348;28;20520;-71
2022/04/26 09:02:18;;;;;;;2.75;1.90;;;;;;;11.50;68.92;101978.25;5066454;28;20127;-72
2022/04/26 09:05:00;;;;;;;2.67;1.60;;;;;;;11.44;66.33;101991.69;5045927;28;20035;-71
2022/04/26 09:07:33;;;;;;;2.75;1.73;;;;;;;11.40;70.03;101988.28;5041249;28;20116;-71
2022/04/26 09:10:16;;;;;;;1.98;1.52;;;;;;;11.58;69.14;101995.69;5045916;28;20398;-72
2022/04/26 09:13:07;;;;;;;2.40;1.80;;;;;;;11.52;66.04;101996.78;5033338;28;20053;-71
2022/04/26 09:15:43;;;;;;;2.95;1.60;;;;;;;11.44;68.35;101996.16;5003933;28;20053;-71
2022/04/26 09:18:27;;;;;;;3.50;1.83;;;;;;;11.37;67.67;101998.97;5027593;28;20100;-72
2022/04/26 09:21:05;;;;;;;2.78;1.55;;;;;;;11.23;66.65;101999.38;5023127;28;20575;-73
2022/04/26 09:23:32;;;;;;;2.55;1.58;;;;;;;11.18;67.23;101996.03;5020733;28;20067;-72
2022/04/26 09:26:15;;;;;;;3.38;1.80;;;;;;;11.27;65.17;101990.44;5025333;28;20041;-72
2022/04/26 09:28:46;;;;;;;1.83;1.60;;;;;;;11.34;67.88;101995.56;5030031;28;20164;-72
2022/04/26 09:31:24;;;;;;;3.47;1.45;;;;;;;11.59;66.51;101998.31;5024886;28;20045;-71
2022/04/26 09:33:52;;;;;;;1.75;1.48;;;;;;;11.72;63.84;101996.13;5005556;28;20057;-72
2022/04/26 09:36:19;;;;;;;3.00;1.85;;;;;;;11.75;66.58;101996.06;5024846;28;20068;-71
2022/04/26 09:38:59;;;;;;;1.60;1.50;;;;;;;11.88;62.86;102000.97;5026287;28;20033;-71
2022/04/26 09:41:26;;;;;;;2.72;1.73;;;;;;;11.81;65.73;102001.16;5019893;28;20042;-71
2022/04/26 09:44:09;;;;;;;2.53;1.50;;;;;;;11.91;62.46;102007.03;5020094;28;20035;-72
2022/04/26 09:46:46;;;;;;;1.50;1.40;;;;;;;11.91;63.18;102006.16;5029475;28;20041;-72
2022/04/26 09:49:17;;;;;;;2.13;1.63;;;;;;;11.89;62.08;102010.66;5029661;28;20041;-73
2022/04/26 09:51:43;;;;;;;3.45;2.00;;;;;;;11.80;63.64;102003.84;5005156;28;20041;-71
2022/04/26 09:54:09;;;;;;;1.63;1.30;;;;;;;11.93;63.87;102010.50;5024207;28;20201;-71
2022/04/26 09:56:34;;;;;;;2.00;1.40;;;;;;;12.07;63.23;102006.56;5026584;28;20040;-72
2022/04/26 09:59:03;;;;;;;1.98;1.23;;;;;;;12.19;62.69;102010.56;5028035;28;20577;-72
2022/04/26 10:01:43;;;;;;;1.75;1.50;;;;;;;12.26;60.10;102009.44;5037930;28;20400;-72
2022/04/26 10:04:12;;;;;;;4.68;1.75;;;;;;;12.23;62.51;102012.22;5025995;28;20202;-71
2022/04/26 10:06:39;;;;;;;1.90;1.75;;;;;;;12.33;62.33;102013.63;5027971;28;20025;-71
2022/04/26 10:09:06;;;;;;;2.03;1.55;;;;;;;12.25;62.23;102015.69;5041582;28;20059;-72
2022/04/26 10:11:32;;;;;;;1.77;1.50;;;;;;;11.97;61.30;102008.63;5042432;28;20492;-72
2022/04/26 10:13:59;;;;;;;1.88;1.38;;;;;;;11.83;61.99;102019.69;5066463;28;20082;-71
2022/04/26 10:16:25;;;;;;;2.40;1.40;;;;;;;11.82;61.75;102018.81;5059774;28;20127;-71
2022/04/26 10:18:51;;;;;;;2.53;1.60;;;;;;;11.88;62.71;102022.19;5051526;28;20036;-72
2022/04/26 10:21:22;;;;;;;2.38;1.70;;;;;;;11.99;60.99;102020.03;5068394;28;20093;-72
2022/04/26 10:23:51;;;;;;;1.98;1.45;;;;;;;11.93;61.64;102021.13;5067586;28;20032;-71
2022/04/26 10:26:22;;;;;;;2.78;1.80;;;;;;;11.79;61.13;102021.56;5063325;28;20120;-70
2022/04/26 10:28:51;;;;;;;1.60;1.50;;;;;;;11.69;63.00;102030.72;5046372;28;20032;-73
2022/04/26 10:31:22;;;;;;;2.45;1.60;;;;;;;11.80;62.45;102023.31;5029764;28;20044;-71
2022/04/26 10:33:47;;;;;;;1.67;1.45;;;;;;;11.82;63.18;102024.13;5066205;28;20047;-71
2022/04/26 10:36:19;;;;;;;2.95;1.63;;;;;;;11.97;62.26;102010.41;5052114;28;20032;-70
2022/04/26 10:39:09;;;;;;;1.60;1.50;;;;;;;11.80;60.86;102028.63;5067016;28;20040;-71
2022/04/26 10:41:45;;;;;;;2.55;1.30;;;;;;;11.63;62.40;102022.97;5064520;28;20047;-71
2022/04/26 10:44:13;;;;;;;2.75;1.50;;;;;;;11.58;61.57;102022.22;5063691;28;20105;-71
2022/04/26 10:46:50;;;;;;;2.47;1.52;;;;;;;11.48;61.32;102035.78;5039770;28;20123;-71
2022/04/26 10:49:24;;;;;;;2.40;1.60;;;;;;;11.31;60.69;102027.44;5045646;28;20036;-74
2022/04/26 10:51:51;;;;;;;2.95;1.63;;;;;;;11.25;62.71;102023.22;5043590;28;20036;-71
2022/04/26 10:54:45;;;;;;;2.20;1.50;;;;;;;11.43;61.33;102021.78;5066822;28;20039;-71
2022/04/26 10:57:12;;;;;;;1.60;1.50;;;;;;;11.59;62.94;102024.00;5063315;28;20390;-71
2022/04/26 10:59:44;;;;;;;3.45;1.63;;;;;;;11.69;61.87;102028.06;5049522;28;20036;-71
2022/04/26 11:02:13;;;;;;;2.58;1.80;;;;;;;11.66;60.62;102017.56;5031186;28;20655;-70
2022/04/26 11:04:38;;;;;;;3.30;1.83;;;;;;;11.49;61.61;102024.25;5048372;28;20032;-70
2022/04/26 11:07:15;;;;;;;2.13;1.90;;;;;;;11.50;61.44;102023.34;5047586;28;20039;-71
2022/04/26 11:09:46;;;;;;;2.65;1.67;;;;;;;11.72;62.24;102033.28;5030302;28;20470;-70
2022/04/26 11:12:12;;;;;;;1.88;1.42;;;;;;;11.91;62.02;102027.38;5042631;28;21315;-71
2022/04/26 11:14:41;;;;;;;1.85;1.48;;;;;;;11.81;60.54;102026.81;5042147;28;20032;-74
2022/04/26 11:17:07;;;;;;;1.60;1.40;;;;;;;11.79;61.94;102039.25;5043241;28;20040;-73
2022/04/26 11:19:36;;;;;;;1.90;1.70;;;;;;;11.91;61.78;102030.03;5030195;28;20080;-71
2022/04/26 11:22:05;;;;;;;1.90;1.60;;;;;;;12.06;61.28;102020.75;5039780;28;20125;-68
2022/04/26 11:30:00;;;;;;;1.92;1.33;;;;;;;12.08;59.95;102025.09;5048245;28;20063;-67
2022/04/26 11:32:32;;;;;;;1.55;1.45;;;;;;;11.92;60.83;102031.78;5049119;28;20456;-67
2022/04/26 11:34:57;;;;;;;3.83;1.83;;;;;;;11.92;61.17;102030.00;5045753;28;20059;-67
2022/04/26 11:37:23;;;;;;;2.60;1.48;;;;;;;12.13;61.98;102039.97;5043371;28;20165;-67
2022/04/26 11:39:49;;;;;;;2.42;1.48;;;;;;;12.22;60.62;102039.69;5041029;28;20044;-66
2022/04/26 11:42:16;;;;;;;2.08;1.40;;;;;;;12.15;60.98;102043.47;5059097;28;20037;-66
2022/04/26 11:45:03;;;;;;;3.22;1.40;;;;;;;12.03;59.43;102052.66;5045622;28;20037;-66
2022/04/26 11:47:48;;;;;;;1.75;1.23;;;;;;;11.93;59.41;102047.66;5043902;28;20307;-66
2022/04/26 11:50:20;;;;;;;2.20;1.30;;;;;;;11.93;59.42;102052.13;5027733;28;20243;-66
2022/04/26 11:52:47;;;;;;;2.10;1.45;;;;;;;11.85;60.26;102052.34;5044564;28;20032;-66
2022/04/26 11:55:27;;;;;;;2.63;1.58;;;;;;;11.84;60.53;102063.00;5040743;28;20063;-66
2022/04/26 11:58:04;;;;;;;1.90;1.45;;;;;;;11.82;61.41;102060.38;5044310;28;20054;-67
2022/04/26 12:00:29;;;;;;;1.75;1.40;;;;;;;11.85;61.61;102059.41;5062536;28;20782;-66
2022/04/26 12:02:55;;;;;;;2.95;1.60;;;;;;;11.88;61.10;102060.19;5047314;28;20105;-66
2022/04/26 12:05:21;;;;;;;3.25;1.40;;;;;;;11.84;61.50;102063.00;5047747;28;20136;-66
2022/04/26 12:07:47;;;;;;;3.33;1.73;;;;;;;11.75;61.24;102067.69;5044960;28;20093;-66
2022/04/26 12:10:32;;;;;;;2.97;2.15;;;;;;;11.79;60.77;102056.06;5047100;28;20032;-66
2022/04/26 12:13:01;;;;;;;2.80;1.83;;;;;;;12.04;61.62;102073.88;5043446;28;20499;-68
2022/04/26 12:15:30;;;;;;;2.60;1.50;;;;;;;12.09;61.32;102064.00;5046578;28;20036;-68
2022/04/26 12:18:28;;;;;;;3.78;1.70;;;;;;;11.96;59.79;102067.91;5043940;28;20101;-68
2022/04/26 12:21:02;;;;;;;1.80;1.40;;;;;;;11.84;59.74;102074.50;5017030;28;20052;-68
2022/04/26 12:23:29;;;;;;;2.00;1.27;;;;;;;11.76;60.99;102071.22;5039218;28;20036;-68
2022/04/26 12:26:01;;;;;;;2.15;1.52;;;;;;;11.75;60.52;102074.75;5040498;28;20491;-68
2022/04/26 12:28:28;;;;;;;1.80;1.35;;;;;;;11.78;61.26;102072.88;5039378;28;20403;-68
2022/04/26 12:30:54;;;;;;;2.95;1.67;;;;;;;11.88;61.16;102072.59;5055196;28;20039;-68
2022/04/26 12:33:30;;;;;;;1.30;1.20;;;;;;;11.89;60.81;102072.56;5043079;28;20029;-68
2022/04/26 12:36:02;;;;;;;1.52;1.40;;;;;;;11.96;61.00;102078.53;5046872;28;20167;-68
2022/04/26 12:38:28;;;;;;;2.13;1.50;;;;;;;11.96;60.80;102073.22;5039499;28;20090;-68
2022/04/26 12:41:05;;;;;;;2.58;1.73;;;;;;;11.94;59.67;102070.63;5044082;28;20553;-68
2022/04/26 12:43:31;;;;;;;2.53;1.58;;;;;;;12.01;61.30;102081.91;5041964;28;20521;-68
2022/04/26 12:45:58;;;;;;;2.88;1.40;;;;;;;12.06;60.66;102074.72;5021191;28;20368;-68
2022/04/26 12:51:17;;;;;;;1.98;1.35;;;;;;;12.00;60.49;102084.63;5045002;28;20036;-68
2022/04/26 12:53:45;;;;;;;4.43;1.70;;;;;;;11.96;60.50;102089.16;5040527;28;20040;-68
2022/04/26 12:56:11;;;;;;;3.17;1.40;;;;;;;11.91;61.52;102088.41;5045282;28;20033;-68
2022/04/26 12:58:38;;;;;;;3.00;1.60;;;;;;;11.81;61.15;102090.50;5041978;28;20400;-68
2022/04/26 13:01:05;;;;;;;2.03;1.38;;;;;;;11.80;59.86;102089.63;5047054;28;20032;-66
2022/04/26 13:03:31;;;;;;;1.42;1.30;;;;;;;11.78;60.01;102083.50;5046015;28;20101;-66
2022/04/26 13:06:14;;;;;;;1.38;1.15;;;;;;;11.76;59.06;102085.34;5021764;28;20040;-67
2022/04/26 13:08:41;;;;;;;3.35;1.60;;;;;;;11.75;60.56;102091.56;5043948;28;20025;-67
2022/04/26 13:11:07;;;;;;;4.10;1.77;;;;;;;11.68;60.34;102088.22;5045525;28;20131;-67
2022/04/26 13:13:35;;;;;;;2.83;1.55;;;;;;;11.73;60.60;102082.78;5058297;28;20518;-67
2022/04/26 13:16:01;;;;;;;1.77;1.23;;;;;;;11.70;60.17;102088.16;5047746;28;20036;-67
2022/04/26 13:18:28;;;;;;;1.85;1.70;;;;;;;11.54;59.59;102083.34;5013461;28;20545;-68
2022/04/26 13:20:56;;;;;;;2.25;1.60;;;;;;;11.57;60.81;102086.78;5066725;28;20035;-68
2022/04/26 13:23:22;;;;;;;2.35;1.50;;;;;;;11.65;60.28;102080.34;5065860;28;20032;-67
2022/04/26 13:25:47;;;;;;;1.80;1.52;;;;;;;11.65;60.56;102075.06;5046967;28;20071;-67
2022/04/26 13:28:13;;;;;;;1.50;1.40;;;;;;;11.70;59.90;102077.56;5043794;28;20368;-68
2022/04/26 13:30:39;;;;;;;2.85;1.50;;;;;;;11.61;60.21;102091.09;5066143;28;20290;-68
2022/04/26 13:33:05;;;;;;;1.48;1.38;;;;;;;11.63;60.58;102089.28;5065892;28;20259;-67
2022/04/26 13:35:31;;;;;;;3.20;1.55;;;;;;;11.81;59.90;102083.41;5063197;28;20036;-68
2022/04/26 13:38:00;;;;;;;3.45;1.40;;;;;;;11.92;59.48;102080.41;5065424;28;20038;-68
2022/04/26 13:40:26;;;;;;;2.40;1.38;;;;;;;12.11;58.04;102084.31;5065918;28;20040;-68
2022/04/26 13:42:51;;;;;;;2.85;1.60;;;;;;;12.15;59.04;102078.84;5065240;28;20036;-66
2022/04/26 13:45:17;;;;;;;3.55;1.70;;;;;;;12.32;60.55;102091.56;5059729;28;20032;-68
2022/04/26 13:47:45;;;;;;;2.60;1.40;;;;;;;12.50;59.69;102081.25;5067822;28;20687;-73
2022/04/26 13:50:11;;;;;;;1.38;1.27;;;;;;;12.51;59.08;102080.34;5039450;28;20068;-68
2022/04/26 13:52:38;;;;;;;3.65;1.77;;;;;;;12.50;58.78;102084.75;5038525;28;20040;-68
2022/04/26 13:55:04;;;;;;;1.83;1.60;;;;;;;12.46;59.18;102072.53;5064399;28;20475;-69
2022/04/26 13:57:30;;;;;;;1.60;1.50;;;;;;;12.48;58.85;102081.31;5026985;28;20036;-68
2022/04/26 13:59:55;;;;;;;1.70;1.58;;;;;;;12.47;58.20;102082.22;5065232;28;21401;-68
2022/04/26 14:02:21;;;;;;;1.63;1.42;;;;;;;12.38;58.60;102082.53;5067405;28;20036;-68
2022/04/26 14:04:48;;;;;;;1.55;1.30;;;;;;;12.40;59.05;102077.16;5069089;28;20047;-68
2022/04/26 14:07:14;;;;;;;1.70;1.60;;;;;;;12.54;59.14;102074.06;5049491;28;20820;-68
2022/04/26 14:09:40;;;;;;;2.10;1.30;;;;;;;12.64;58.28;102080.78;5063973;28;20109;-68
2022/04/26 14:12:07;;;;;;;2.15;1.30;;;;;;;12.71;57.34;102081.44;5062196;28;20539;-68
2022/04/26 14:22:46;;;;;;;1.83;1.50;;;;;;;12.50;57.39;102073.28;5049933;28;20109;-68
2022/04/26 14:25:12;;;;;;;3.92;1.65;;;;;;;12.27;58.26;102074.06;5043997;28;20039;-69
2022/04/26 14:27:40;;;;;;;1.40;1.30;;;;;;;12.34;59.25;102079.13;5049148;28;20490;-68
2022/04/26 14:30:07;;;;;;;1.60;1.50;;;;;;;12.40;58.59;102077.16;5063199;28;20145;-69
2022/04/26 14:32:33;;;;;;;2.22;1.50;;;;;;;12.43;58.89;102071.75;5048379;28;20031;-68
2022/04/26 14:34:58;;;;;;;1.73;1.38;;;;;;;12.44;58.50;102079.69;5041121;28;20083;-67
2022/04/26 14:37:24;;;;;;;2.25;1.83;;;;;;;12.41;58.59;102070.94;5043478;28;20734;-68
2022/04/26 14:39:50;;;;;;;3.33;1.48;;;;;;;12.35;58.19;102070.22;5066988;28;20076;-68
2022/04/26 14:42:15;;;;;;;2.58;1.67;;;;;;;12.23;58.20;102073.28;5047197;28;20028;-68
2022/04/26 14:44:41;;;;;;;2.70;1.40;;;;;;;12.03;57.99;102061.53;5059905;28;20130;-68
2022/04/26 14:47:07;;;;;;;1.75;1.60;;;;;;;11.88;57.50;102062.84;5067080;28;20039;-68
2022/04/26 14:49:33;;;;;;;1.77;1.40;;;;;;;11.97;58.76;102067.00;5069073;28;20150;-68
2022/04/26 14:51:59;;;;;;;3.17;1.50;;;;;;;12.14;58.03;102078.91;5045106;28;20048;-69
2022/04/26 14:54:25;;;;;;;2.28;1.30;;;;;;;12.13;57.22;102071.84;5068707;28;20108;-68
2022/04/26 14:56:50;;;;;;;1.85;1.50;;;;;;;12.05;57.54;102077.41;5067376;28;20039;-68
2022/04/26 14:59:18;;;;;;;1.80;1.70;;;;;;;11.95;57.45;102077.66;5044785;28;20036;-68
2022/04/26 15:01:48;;;;;;;2.42;1.88;;;;;;;11.69;57.39;102089.09;5049389;28;20579;-69
2022/04/26 15:04:15;;;;;;;1.98;1.42;;;;;;;11.63;58.28;102086.63;5066745;28;20113;-69
2022/04/26 15:06:41;;;;;;;2.40;1.65;;;;;;;11.53;57.73;102086.03;5044698;28;20579;-70
2022/04/26 15:16:37;;;;;;;1.98;1.38;;;;;;;11.34;57.66;102091.00;5068345;28;20040;-69
2022/04/26 15:17:21;;;;;;;2.47;1.60;;;;;;;11.22;57.72;102093.06;5043748;28;20040;-74
2022/04/26 15:19:48;;;;;;;4.57;1.70;;;;;;;11.24;57.58;102091.25;5045999;28;20036;-78
2022/04/26 15:22:14;;;;;;;2.60;1.35;;;;;;;11.23;57.69;102099.25;5064025;28;20660;-71
2022/04/26 15:24:40;;;;;;;2.15;1.40;;;;;;;11.19;57.85;102092.31;5066884;28;20093;-71
2022/04/26 15:27:06;;;;;;;3.03;1.60;;;;;;;11.05;56.51;102096.19;5065520;28;20170;-72
2022/04/26 15:29:31;;;;;;;2.63;1.52;;;;;;;11.06;56.51;102091.78;5068466;28;20633;-71
2022/04/26 15:31:57;;;;;;;2.75;1.45;;;;;;;11.09;57.15;102097.88;5049439;28;20043;-71
2022/04/26 15:34:23;;;;;;;1.90;1.38;;;;;;;11.12;56.74;102089.81;5068599;28;20059;-71
2022/04/26 15:36:48;;;;;;;1.35;1.15;;;;;;;11.16;55.55;102090.59;5067979;28;20038;-71
2022/04/26 15:39:14;;;;;;;1.58;1.10;;;;;;;11.19;55.71;102098.47;5058038;28;20031;-72
2022/04/26 15:41:39;;;;;;;1.60;1.30;;;;;;;11.22;55.92;102090.44;5049393;28;20035;-73